Time;durP1;ratioP1;P1;durP2;ratioP2;P2;SDS_P1;SDS_P2;PMS_P1;PMS_P2;Temp;Humidity;BMP_temperature;BMP_pressure;BME280_temperature;BME280_humidity;BME280_pressure;Samples;Min_cycle;Max_cycle;Signal;HPM_P1;HPM_P2
2022/06/20 00:01:34;;;;;;;5.90;3.10;;;15.90;54.20;;;;;;5052748;28;20892;-76
2022/06/20 00:04:00;;;;;;;3.58;2.90;;;15.70;56.10;;;;;;5070208;28;20403;-76
2022/06/20 00:06:28;;;;;;;8.55;3.20;;;15.80;54.20;;;;;;5070713;28;20423;-76
2022/06/20 00:08:54;;;;;;;6.82;3.38;;;15.70;55.00;;;;;;5069409;28;20419;-76
2022/06/20 00:11:36;;;;;;;3.55;2.97;;;15.80;54.60;;;;;;5052630;28;20408;-75
2022/06/20 00:14:02;;;;;;;7.35;3.45;;;16.00;52.40;;;;;;5070325;28;20434;-75
2022/06/20 00:16:32;;;;;;;11.38;3.20;;;15.90;54.00;;;;;;5071821;28;20411;-75
2022/06/20 00:18:58;;;;;;;6.07;3.53;;;16.00;52.60;;;;;;5069529;28;20411;-76
2022/06/20 00:21:24;;;;;;;8.35;3.22;;;15.90;54.50;;;;;;5052604;28;20440;-76
2022/06/20 00:23:50;;;;;;;3.67;3.20;;;15.90;54.10;;;;;;5068577;28;20411;-76
2022/06/20 00:26:17;;;;;;;5.13;3.30;;;16.00;53.40;;;;;;5070251;28;20413;-75
2022/06/20 00:28:44;;;;;;;6.97;3.67;;;15.90;53.60;;;;;;5068886;28;20752;-76
2022/06/20 00:31:11;;;;;;;8.68;4.07;;;15.90;53.40;;;;;;5053394;28;20800;-75
2022/06/20 00:33:36;;;;;;;8.05;3.50;;;15.80;55.20;;;;;;5069088;28;20490;-74
2022/06/20 00:36:02;;;;;;;9.55;3.70;;;15.90;55.10;;;;;;5052171;28;20414;-75
2022/06/20 00:38:28;;;;;;;5.40;3.30;;;15.90;55.10;;;;;;5070296;28;20415;-76
2022/06/20 00:41:00;;;;;;;5.83;3.50;;;15.80;55.50;;;;;;5070064;28;20441;-76
2022/06/20 00:43:39;;;;;;;8.00;3.60;;;15.80;56.40;;;;;;5070048;28;20415;-76
2022/06/20 00:46:27;;;;;;;7.32;4.18;;;15.70;56.90;;;;;;5069797;28;20429;-76
2022/06/20 00:48:56;;;;;;;4.27;3.50;;;15.70;57.20;;;;;;5071239;28;20921;-77
2022/06/20 00:51:47;;;;;;;6.60;3.90;;;16.00;53.70;;;;;;5069099;28;20388;-76
2022/06/20 00:54:23;;;;;;;7.70;3.80;;;16.00;53.10;;;;;;5059143;28;20420;-75
2022/06/20 00:56:58;;;;;;;7.10;4.30;;;16.00;53.30;;;;;;5068488;28;20413;-75
2022/06/20 00:59:36;;;;;;;8.23;3.80;;;16.00;53.00;;;;;;5065699;28;20419;-76
2022/06/20 01:02:06;;;;;;;6.20;3.70;;;15.90;54.40;;;;;;5051874;28;20408;-73
2022/06/20 01:04:40;;;;;;;5.10;4.00;;;15.80;55.30;;;;;;5051082;28;20756;-75
2022/06/20 01:07:12;;;;;;;5.45;3.65;;;15.80;56.30;;;;;;5066224;28;20395;-75
2022/06/20 01:09:43;;;;;;;7.20;3.80;;;15.90;54.90;;;;;;5067905;28;20399;-74
2022/06/20 01:12:14;;;;;;;7.50;4.05;;;15.80;56.30;;;;;;5067741;28;20456;-73
2022/06/20 01:14:40;;;;;;;6.55;3.92;;;15.90;55.90;;;;;;5067984;28;20392;-74
2022/06/20 01:17:27;;;;;;;8.77;4.22;;;15.80;56.60;;;;;;5070648;28;20445;-75
2022/06/20 01:20:17;;;;;;;6.47;4.00;;;15.80;57.90;;;;;;5052737;28;20401;-74
2022/06/20 01:23:01;;;;;;;8.10;4.43;;;15.80;57.80;;;;;;5065591;28;20407;-73
2022/06/20 01:26:09;;;;;;;9.15;5.82;;;15.80;59.90;;;;;;5068545;28;20441;-75
2022/06/20 01:28:38;;;;;;;8.27;4.40;;;15.70;61.50;;;;;;5065707;28;20498;-73
2022/06/20 01:31:04;;;;;;;7.45;4.00;;;15.70;60.60;;;;;;5070171;28;20403;-73
2022/06/20 01:33:31;;;;;;;9.48;4.00;;;15.70;59.60;;;;;;5071103;28;20443;-75
2022/06/20 01:38:44;;;;;;;10.05;4.50;;;15.70;69.60;;;;;;5069359;28;20788;-74
2022/06/20 01:43:58;;;;;;;10.88;5.20;;;15.60;67.50;;;;;;5068862;28;20399;-76
2022/06/20 01:46:31;;;;;;;8.52;4.40;;;15.40;68.50;;;;;;5069874;28;20911;-75
2022/06/20 01:48:59;;;;;;;10.75;4.80;;;15.40;70.30;;;;;;5070879;28;20408;-76
2022/06/20 01:51:31;;;;;;;13.80;4.80;;;15.30;73.30;;;;;;5074044;28;20803;-78
2022/06/20 01:53:58;;;;;;;8.52;5.35;;;15.20;78.90;;;;;;5077310;28;20403;-78
2022/06/20 01:56:27;;;;;;;7.60;5.82;;;15.10;83.10;;;;;;5077742;28;20400;-79
2022/06/20 01:58:59;;;;;;;9.25;6.00;;;15.00;89.60;;;;;;5076825;28;20412;-78
2022/06/20 02:01:27;;;;;;;12.98;6.72;;;14.90;93.00;;;;;;5074161;28;20798;-81
2022/06/20 02:03:53;;;;;;;11.80;6.40;;;14.80;95.50;;;;;;5062270;28;20403;-78
2022/06/20 02:06:19;;;;;;;12.03;5.87;;;14.90;95.90;;;;;;5091029;28;20399;-77
2022/06/20 02:08:51;;;;;;;9.40;5.60;;;15.00;92.90;;;;;;5095759;28;20404;-77
2022/06/20 02:11:33;;;;;;;10.07;5.47;;;15.30;87.00;;;;;;5071841;28;20402;-77
2022/06/20 02:14:20;;;;;;;12.98;5.60;;;15.40;84.90;;;;;;5077464;28;20395;-74
2022/06/20 02:16:52;;;;;;;12.48;6.28;;;15.30;84.60;;;;;;5086504;28;21157;-76
2022/06/20 02:19:24;;;;;;;11.60;6.60;;;15.30;88.10;;;;;;5077160;28;20430;-75
2022/06/20 02:21:56;;;;;;;9.15;6.43;;;15.20;88.20;;;;;;5081586;28;20401;-77
2022/06/20 02:24:23;;;;;;;9.32;5.82;;;15.20;90.00;;;;;;5093612;28;20802;-75
2022/06/20 02:26:53;;;;;;;13.48;6.68;;;15.20;91.30;;;;;;5090776;28;20416;-75
2022/06/20 02:29:26;;;;;;;13.40;6.25;;;15.10;91.50;;;;;;5086421;28;20407;-76
2022/06/20 02:32:16;;;;;;;11.52;6.10;;;15.00;90.10;;;;;;5088824;28;20526;-77
2022/06/20 02:34:43;;;;;;;17.83;6.60;;;14.80;89.20;;;;;;5091050;28;20410;-75
2022/06/20 02:37:13;;;;;;;11.90;7.35;;;14.60;89.50;;;;;;5070418;28;20407;-75
2022/06/20 02:39:41;;;;;;;10.65;6.10;;;14.50;93.40;;;;;;5080301;28;20407;-76
2022/06/20 02:42:17;;;;;;;12.15;6.47;;;14.40;92.00;;;;;;5061482;28;20419;-75
2022/06/20 02:44:46;;;;;;;15.52;6.60;;;14.40;93.10;;;;;;5080071;28;20403;-77
2022/06/20 02:47:13;;;;;;;11.93;6.40;;;14.30;95.00;;;;;;5064082;28;20467;-76
2022/06/20 02:49:40;;;;;;;9.40;6.68;;;14.20;93.10;;;;;;5056601;28;20470;-75
2022/06/20 02:52:10;;;;;;;11.30;6.20;;;14.20;94.80;;;;;;5074229;28;20400;-76
2022/06/20 02:54:37;;;;;;;9.10;5.50;;;14.10;95.20;;;;;;5080787;28;20387;-78
2022/06/20 02:57:13;;;;;;;13.23;7.38;;;14.00;96.60;;;;;;5087970;28;20395;-79
2022/06/20 02:59:51;;;;;;;18.20;8.35;;;14.00;99.90;;;;;;5070651;28;20450;-80
2022/06/20 03:02:23;;;;;;;16.50;7.60;;;14.00;99.90;;;;;;5065900;28;20420;-80
2022/06/20 03:04:49;;;;;;;13.20;7.50;;;14.00;99.90;;;;;;5079396;28;20511;-80
2022/06/20 03:07:26;;;;;;;25.77;12.10;;;14.00;99.70;;;;;;5077228;28;20403;-83
2022/06/20 03:09:57;;;;;;;19.20;9.13;;;14.00;99.90;;;;;;5080031;28;20417;-82
2022/06/20 03:12:23;;;;;;;21.52;12.25;;;14.00;99.90;;;;;;5081267;28;20407;-79
2022/06/20 03:14:57;;;;;;;26.00;12.75;;;14.10;99.80;;;;;;5075591;28;20430;-78
2022/06/20 03:17:23;;;;;;;24.55;12.65;;;14.00;97.00;;;;;;5083676;28;20394;-78
2022/06/20 03:19:55;;;;;;;18.38;9.52;;;14.00;96.60;;;;;;5081353;28;20430;-79
2022/06/20 03:22:26;;;;;;;17.35;9.35;;;14.00;99.40;;;;;;5077936;28;20391;-79
2022/06/20 03:24:53;;;;;;;17.90;9.27;;;14.00;97.70;;;;;;5082721;28;20404;-78
2022/06/20 03:27:24;;;;;;;15.30;9.80;;;14.00;97.10;;;;;;5087939;28;20815;-79
2022/06/20 03:29:54;;;;;;;21.58;9.57;;;14.00;96.50;;;;;;5086076;28;20508;-79
2022/06/20 03:32:24;;;;;;;20.92;8.63;;;14.00;95.60;;;;;;5082815;28;20392;-78
2022/06/20 03:34:51;;;;;;;15.53;7.97;;;14.00;92.80;;;;;;5078362;28;20397;-78
2022/06/20 03:37:18;;;;;;;14.88;7.90;;;14.00;89.60;;;;;;5063732;28;20399;-78
2022/06/20 03:39:45;;;;;;;17.00;7.73;;;13.90;93.20;;;;;;5090085;28;20415;-80
2022/06/20 03:42:12;;;;;;;13.45;6.03;;;14.00;91.70;;;;;;5083683;28;20842;-78
2022/06/20 03:44:46;;;;;;;9.52;5.68;;;14.00;86.00;;;;;;5084974;28;20756;-78
2022/06/20 03:47:11;;;;;;;12.27;5.45;;;14.00;84.50;;;;;;5082644;28;20403;-79
2022/06/20 03:50:02;;;;;;;13.80;5.47;;;14.00;84.00;;;;;;5080703;28;20446;-79
2022/06/20 03:52:42;;;;;;;14.77;5.87;;;14.00;84.30;;;;;;5081643;28;20396;-79
2022/06/20 03:55:13;;;;;;;15.07;5.13;;;14.00;86.70;;;;;;5070071;28;20401;-79
2022/06/20 03:57:47;;;;;;;16.27;5.30;;;14.00;81.50;;;;;;5081704;28;20460;-81
2022/06/20 04:00:17;;;;;;;11.30;4.40;;;14.10;82.50;;;;;;5076165;28;20766;-79
2022/06/20 04:03:02;;;;;;;19.10;5.67;;;14.10;78.70;;;;;;5074436;28;20396;-78
2022/06/20 04:05:41;;;;;;;16.02;5.50;;;14.10;83.70;;;;;;5055350;28;20407;-78
2022/06/20 04:08:15;;;;;;;11.90;4.68;;;14.10;79.30;;;;;;5073550;28;20585;-79
2022/06/20 04:11:01;;;;;;;12.77;5.20;;;14.20;79.90;;;;;;5074495;28;20427;-78
2022/06/20 04:13:41;;;;;;;12.30;4.88;;;14.30;75.40;;;;;;5042588;28;20770;-76
2022/06/20 04:16:18;;;;;;;14.23;5.35;;;14.40;77.20;;;;;;5069933;28;20402;-75
2022/06/20 04:18:57;;;;;;;16.15;5.05;;;14.30;79.50;;;;;;5070007;28;20753;-75
2022/06/20 04:21:25;;;;;;;13.20;5.57;;;14.30;78.10;;;;;;5066599;28;20410;-75
2022/06/20 04:24:05;;;;;;;9.75;5.20;;;14.30;83.30;;;;;;5069157;28;20410;-75
2022/06/20 04:26:37;;;;;;;13.95;5.07;;;14.20;84.90;;;;;;5072656;28;20444;-78
2022/06/20 04:29:24;;;;;;;10.65;5.00;;;14.30;83.70;;;;;;5070470;28;20412;-78
2022/06/20 04:31:59;;;;;;;16.50;6.10;;;14.50;76.00;;;;;;5051716;28;20496;-76
2022/06/20 04:34:32;;;;;;;13.10;5.40;;;14.60;75.20;;;;;;5051194;28;20400;-76
2022/06/20 04:37:26;;;;;;;11.73;5.27;;;14.60;71.10;;;;;;5049839;28;20765;-77
2022/06/20 04:40:30;;;;;;;11.65;5.65;;;14.70;71.40;;;;;;5069418;28;20419;-75
2022/06/20 04:43:17;;;;;;;10.98;5.15;;;14.60;78.00;;;;;;5015163;28;20414;-75
2022/06/20 04:45:54;;;;;;;16.73;6.60;;;14.80;75.00;;;;;;5069284;28;20438;-76
2022/06/20 04:48:22;;;;;;;14.50;6.30;;;14.60;75.10;;;;;;5040950;28;20813;-75
2022/06/20 04:50:58;;;;;;;16.90;7.00;;;14.50;81.30;;;;;;5068447;28;20404;-76
2022/06/20 04:53:37;;;;;;;15.27;6.10;;;14.80;76.60;;;;;;5064657;28;20942;-76
2022/06/20 04:56:06;;;;;;;12.98;5.60;;;14.90;77.40;;;;;;5061068;28;20405;-77
2022/06/20 04:58:48;;;;;;;13.32;5.60;;;15.00;71.00;;;;;;5075648;28;20490;-75
2022/06/20 05:01:16;;;;;;;15.32;5.90;;;14.90;71.40;;;;;;5069125;28;20395;-76
2022/06/20 05:03:45;;;;;;;16.02;5.40;;;14.90;74.80;;;;;;5068609;28;20399;-75
2022/06/20 05:06:18;;;;;;;13.68;5.03;;;14.90;68.40;;;;;;5070670;28;20476;-75
2022/06/20 05:08:52;;;;;;;12.20;4.60;;;14.90;70.30;;;;;;5069119;28;20908;-75
2022/06/20 05:11:29;;;;;;;7.60;3.72;;;14.80;66.60;;;;;;5064958;28;20392;-75
2022/06/20 05:14:04;;;;;;;11.82;4.28;;;14.80;66.70;;;;;;5070611;28;20407;-77
2022/06/20 05:16:34;;;;;;;6.47;3.63;;;14.80;68.40;;;;;;5074758;28;20407;-76
2022/06/20 05:19:32;;;;;;;9.18;3.80;;;14.70;63.20;;;;;;5056062;28;20467;-76
2022/06/20 05:22:19;;;;;;;18.45;4.20;;;14.80;65.50;;;;;;5053072;28;20409;-76
2022/06/20 05:24:47;;;;;;;12.60;4.10;;;14.70;62.50;;;;;;5061813;28;20505;-77
2022/06/20 05:27:37;;;;;;;18.25;3.85;;;14.70;64.00;;;;;;5060213;28;20401;-77
2022/06/20 05:30:07;;;;;;;11.07;3.45;;;14.70;68.40;;;;;;5064652;28;20768;-77
2022/06/20 05:32:49;;;;;;;13.70;3.73;;;14.70;70.80;;;;;;5076331;28;20388;-76
2022/06/20 05:35:29;;;;;;;13.32;3.53;;;14.80;72.20;;;;;;5070460;28;20459;-75
2022/06/20 05:38:13;;;;;;;12.65;3.65;;;14.70;68.90;;;;;;5053370;28;21003;-76
2022/06/20 05:41:21;;;;;;;14.52;4.22;;;14.60;69.20;;;;;;5057987;28;20410;-76
2022/06/20 05:44:16;;;;;;;13.10;3.40;;;14.50;67.10;;;;;;5055979;28;20406;-76
2022/06/20 05:46:50;;;;;;;15.43;4.20;;;14.50;71.80;;;;;;5054944;28;20400;-77
2022/06/20 05:49:29;;;;;;;10.40;3.40;;;14.40;68.60;;;;;;5071990;28;20411;-77
2022/06/20 05:51:56;;;;;;;13.80;4.15;;;14.50;67.20;;;;;;5075452;28;20867;-77
2022/06/20 05:54:37;;;;;;;10.43;3.60;;;14.60;69.40;;;;;;5082596;28;20403;-77
2022/06/20 05:57:11;;;;;;;13.88;4.38;;;14.60;69.60;;;;;;5061832;28;20764;-78
2022/06/20 05:59:50;;;;;;;14.85;3.90;;;14.70;69.00;;;;;;5062997;28;20407;-76
2022/06/20 06:02:34;;;;;;;11.80;3.90;;;14.80;63.00;;;;;;5083755;28;20403;-77
2022/06/20 06:05:30;;;;;;;12.00;4.18;;;14.80;61.20;;;;;;5065683;28;20483;-77
2022/06/20 06:08:15;;;;;;;11.00;3.60;;;14.80;59.00;;;;;;5062890;28;20425;-78
2022/06/20 06:11:05;;;;;;;12.75;4.18;;;14.90;61.40;;;;;;5070630;28;20402;-76
2022/06/20 06:14:07;;;;;;;13.25;4.40;;;14.90;63.70;;;;;;5079663;28;20771;-77
2022/06/20 06:17:02;;;;;;;13.77;4.50;;;14.80;63.00;;;;;;5064959;28;20511;-77
2022/06/20 06:19:40;;;;;;;11.07;3.73;;;14.80;66.00;;;;;;5077389;28;20416;-75
2022/06/20 06:22:13;;;;;;;14.00;4.30;;;14.50;68.50;;;;;;5086620;28;20423;-75
2022/06/20 06:24:42;;;;;;;12.88;3.70;;;14.60;68.20;;;;;;5067967;28;20443;-75
2022/06/20 06:27:15;;;;;;;17.42;4.25;;;14.60;66.20;;;;;;5084250;28;20429;-78
2022/06/20 06:29:48;;;;;;;21.85;5.00;;;14.60;69.20;;;;;;5061195;28;20964;-79
2022/06/20 06:32:24;;;;;;;10.38;4.28;;;14.80;70.10;;;;;;5081868;28;20411;-79
2022/06/20 06:34:58;;;;;;;14.00;4.40;;;14.90;67.50;;;;;;5052083;28;20489;-77
2022/06/20 06:37:47;;;;;;;12.52;4.72;;;14.80;65.50;;;;;;5076604;28;20706;-80
2022/06/20 06:40:30;;;;;;;19.83;3.70;;;14.90;63.70;;;;;;5059655;28;20470;-78
2022/06/20 06:42:57;;;;;;;12.10;4.55;;;14.90;64.60;;;;;;5097283;28;20384;-80
2022/06/20 06:45:26;;;;;;;12.75;4.00;;;14.80;66.60;;;;;;5057839;28;20415;-78
2022/06/20 06:48:16;;;;;;;20.92;4.60;;;14.80;68.10;;;;;;5075068;28;20404;-79
2022/06/20 06:50:46;;;;;;;17.27;5.13;;;14.90;69.30;;;;;;5046807;28;20733;-77
2022/06/20 06:53:43;;;;;;;18.00;5.50;;;15.00;70.30;;;;;;5080171;28;20422;-78
2022/06/20 06:56:21;;;;;;;26.70;6.10;;;14.90;77.40;;;;;;5053875;28;20436;-78
2022/06/20 06:59:02;;;;;;;22.23;5.55;;;15.10;73.60;;;;;;5077348;28;20403;-77
2022/06/20 07:01:37;;;;;;;13.73;4.50;;;15.30;68.90;;;;;;5072796;28;20486;-74
2022/06/20 07:04:11;;;;;;;23.88;5.97;;;15.40;67.20;;;;;;5054885;28;20446;-75
2022/06/20 07:06:48;;;;;;;25.08;5.38;;;15.50;69.70;;;;;;5072593;28;20404;-73
2022/06/20 07:09:35;;;;;;;16.38;5.20;;;15.60;69.40;;;;;;5070646;28;20403;-75
2022/06/20 07:12:15;;;;;;;14.80;5.28;;;15.60;70.40;;;;;;5070116;28;20399;-77
2022/06/20 07:14:43;;;;;;;16.33;5.43;;;15.60;69.50;;;;;;5078681;28;20396;-76
2022/06/20 07:17:28;;;;;;;16.85;5.85;;;15.70;66.20;;;;;;5055968;28;20392;-77
2022/06/20 07:19:54;;;;;;;16.90;5.10;;;15.80;68.30;;;;;;5073146;28;20478;-75
2022/06/20 07:22:22;;;;;;;13.52;5.18;;;15.90;63.80;;;;;;5079533;28;20859;-75
2022/06/20 07:24:49;;;;;;;14.60;5.15;;;16.10;62.30;;;;;;5084467;28;20389;-76
2022/06/20 07:27:18;;;;;;;21.90;5.70;;;16.10;58.10;;;;;;5085393;28;20573;-77
2022/06/20 07:29:59;;;;;;;16.15;6.13;;;16.20;59.90;;;;;;5070130;28;20465;-76
2022/06/20 07:32:38;;;;;;;16.33;5.75;;;16.30;59.40;;;;;;5082834;28;20489;-74
2022/06/20 07:35:13;;;;;;;19.52;6.40;;;16.30;60.80;;;;;;5053771;28;20381;-76
2022/06/20 07:37:50;;;;;;;14.75;5.10;;;16.20;65.30;;;;;;5063365;28;20808;-76
2022/06/20 07:40:29;;;;;;;19.35;5.60;;;16.50;61.70;;;;;;5078470;28;20423;-76
2022/06/20 07:43:16;;;;;;;19.55;5.50;;;16.90;61.30;;;;;;5082059;28;20415;-76
2022/06/20 07:45:53;;;;;;;12.70;4.68;;;17.40;49.30;;;;;;5058587;28;20403;-77
2022/06/20 07:48:28;;;;;;;15.05;4.55;;;17.50;46.70;;;;;;5077986;28;20867;-77
2022/06/20 07:51:10;;;;;;;18.38;5.30;;;17.90;48.30;;;;;;5088365;28;20441;-74
2022/06/20 07:53:47;;;;;;;15.13;4.47;;;18.00;47.00;;;;;;5072867;28;20411;-74
2022/06/20 07:56:18;;;;;;;22.50;4.78;;;17.90;45.90;;;;;;5076281;28;20882;-76
2022/06/20 07:58:52;;;;;;;20.05;4.30;;;17.90;44.60;;;;;;5074418;28;20872;-78
2022/06/20 08:01:28;;;;;;;13.65;3.88;;;17.80;46.10;;;;;;5055884;28;20414;-74
2022/06/20 08:04:01;;;;;;;11.25;4.22;;;17.70;43.70;;;;;;5078594;28;20463;-76
2022/06/20 08:06:56;;;;;;;12.77;3.47;;;17.40;43.70;;;;;;5066093;28;20427;-77
2022/06/20 08:09:57;;;;;;;9.60;3.10;;;17.00;42.30;;;;;;5081216;28;20403;-75
2022/06/20 08:12:46;;;;;;;9.68;3.20;;;17.00;43.10;;;;;;5078087;28;20399;-77
2022/06/20 08:15:19;;;;;;;11.70;3.00;;;17.10;44.20;;;;;;5050682;28;20896;-74
2022/06/20 08:17:45;;;;;;;13.35;3.10;;;17.20;43.70;;;;;;5074126;28;20392;-74
2022/06/20 08:20:11;;;;;;;10.57;2.50;;;17.20;45.40;;;;;;5076360;28;20505;-73
2022/06/20 08:22:52;;;;;;;10.05;3.25;;;17.40;39.60;;;;;;5055509;28;20392;-73
2022/06/20 08:25:31;;;;;;;11.73;3.53;;;17.40;41.40;;;;;;5076229;28;20501;-73
2022/06/20 08:28:18;;;;;;;11.05;3.72;;;17.60;36.80;;;;;;5075186;28;20447;-73
2022/06/20 08:31:13;;;;;;;14.15;3.50;;;17.90;37.40;;;;;;5073917;28;20504;-72
2022/06/20 08:33:56;;;;;;;12.50;5.37;;;18.50;34.90;;;;;;5061575;28;20974;-73
2022/06/20 08:36:25;;;;;;;16.25;5.78;;;19.00;33.30;;;;;;5057404;28;20387;-74
2022/06/20 08:39:12;;;;;;;16.52;4.72;;;19.10;33.40;;;;;;5067541;28;20484;-75
2022/06/20 08:41:43;;;;;;;11.20;4.63;;;19.20;31.80;;;;;;5061990;28;20403;-76
2022/06/20 08:44:23;;;;;;;13.35;6.53;;;18.90;33.40;;;;;;5068829;28;20505;-74
2022/06/20 08:47:39;;;;;;;18.27;7.38;;;18.20;32.20;;;;;;5067579;28;20452;-74
2022/06/20 08:50:51;;;;;;;17.58;8.20;;;18.20;34.00;;;;;;5033819;28;20418;-73
2022/06/20 08:53:58;;;;;;;17.38;7.97;;;17.70;36.70;;;;;;5050452;28;20403;-74
2022/06/20 08:56:45;;;;;;;15.20;6.38;;;17.70;36.60;;;;;;5071771;28;20410;-74
2022/06/20 08:59:49;;;;;;;13.02;7.00;;;17.90;34.30;;;;;;5071020;28;20393;-75
2022/06/20 09:02:59;;;;;;;16.52;6.63;;;18.30;33.20;;;;;;5046841;28;20401;-73
2022/06/20 09:05:47;;;;;;;12.93;5.70;;;18.50;30.90;;;;;;5068696;28;20486;-73
2022/06/20 09:08:38;;;;;;;15.98;5.63;;;18.60;30.80;;;;;;5071215;28;20932;-71
2022/06/20 09:11:22;;;;;;;11.98;4.88;;;18.50;30.20;;;;;;5070447;28;20398;-73
2022/06/20 09:13:57;;;;;;;13.23;4.38;;;18.40;28.60;;;;;;5066426;28;20498;-72
2022/06/20 09:16:46;;;;;;;12.68;4.85;;;18.70;26.50;;;;;;5070888;28;20411;-73
2022/06/20 09:19:46;;;;;;;10.68;5.05;;;19.00;25.00;;;;;;5074212;28;20876;-72
2022/06/20 09:22:34;;;;;;;9.15;4.90;;;18.90;23.30;;;;;;5063838;28;20807;-73
2022/06/20 09:25:18;;;;;;;12.20;5.27;;;18.70;25.60;;;;;;5057998;28;20423;-74
2022/06/20 09:27:49;;;;;;;10.95;5.30;;;18.60;25.90;;;;;;5069842;28;20492;-72
2022/06/20 09:30:19;;;;;;;9.93;4.20;;;18.70;25.80;;;;;;5051060;28;20748;-76
2022/06/20 09:32:54;;;;;;;8.15;3.55;;;18.90;24.40;;;;;;5066230;28;20440;-74
2022/06/20 09:35:38;;;;;;;17.17;3.92;;;18.90;23.00;;;;;;5075849;28;20481;-74
2022/06/20 09:38:06;;;;;;;7.85;3.10;;;18.60;21.50;;;;;;5073771;28;20397;-75
2022/06/20 09:40:44;;;;;;;7.68;3.60;;;18.40;22.40;;;;;;5068462;28;20845;-73
2022/06/20 09:43:35;;;;;;;11.35;3.58;;;18.80;23.20;;;;;;5074504;28;20382;-73
2022/06/20 09:46:27;;;;;;;13.05;3.67;;;19.60;20.50;;;;;;5062373;28;20389;-74
2022/06/20 09:49:10;;;;;;;8.85;3.70;;;19.80;19.80;;;;;;5085728;28;20416;-75
2022/06/20 09:51:41;;;;;;;11.45;3.67;;;19.70;19.50;;;;;;5092578;28;20374;-75
2022/06/20 09:54:32;;;;;;;5.40;2.90;;;19.60;18.70;;;;;;5075656;28;20380;-74
2022/06/20 09:57:41;;;;;;;5.53;2.70;;;19.60;18.80;;;;;;5071792;28;20387;-72
2022/06/20 10:00:11;;;;;;;5.28;2.70;;;20.30;17.80;;;;;;5071276;28;20842;-73
2022/06/20 10:02:49;;;;;;;6.28;3.10;;;20.60;16.20;;;;;;5070647;28;20392;-73
2022/06/20 10:05:24;;;;;;;7.40;3.30;;;20.00;17.50;;;;;;5052885;28;20407;-74
2022/06/20 10:08:03;;;;;;;6.63;3.35;;;20.00;17.90;;;;;;5070998;28;20383;-72
2022/06/20 10:10:43;;;;;;;8.70;3.90;;;20.10;18.10;;;;;;5070828;28;20401;-73
2022/06/20 10:13:28;;;;;;;9.50;4.70;;;20.30;16.60;;;;;;5070336;28;20463;-75
2022/06/20 10:16:27;;;;;;;9.80;4.50;;;20.10;17.10;;;;;;5071036;28;20375;-74
2022/06/20 10:19:08;;;;;;;11.32;3.30;;;20.50;16.00;;;;;;5070528;28;20392;-75
2022/06/20 10:21:59;;;;;;;10.30;3.70;;;20.30;15.40;;;;;;5052094;28;20431;-74
2022/06/20 10:24:28;;;;;;;9.05;3.50;;;20.00;16.40;;;;;;5056956;28;20399;-74
2022/06/20 10:27:26;;;;;;;8.35;3.70;;;20.00;16.70;;;;;;5078844;28;20384;-75
2022/06/20 10:30:05;;;;;;;10.30;3.70;;;20.20;16.30;;;;;;5076807;28;20430;-75
2022/06/20 10:32:34;;;;;;;11.73;4.80;;;20.90;14.60;;;;;;5078253;28;20411;-74
2022/06/20 10:35:38;;;;;;;12.98;4.10;;;21.30;15.00;;;;;;5076269;28;20441;-74
2022/06/20 10:38:17;;;;;;;7.57;3.97;;;21.80;14.40;;;;;;5074148;28;20518;-73
2022/06/20 10:40:52;;;;;;;9.50;3.20;;;21.80;13.60;;;;;;5073517;28;20399;-73
2022/06/20 10:43:35;;;;;;;11.55;3.10;;;20.70;14.70;;;;;;5074425;28;20425;-72
2022/06/20 10:46:15;;;;;;;6.80;2.60;;;20.50;16.70;;;;;;5073909;28;20382;-73
2022/06/20 10:49:06;;;;;;;8.68;2.97;;;20.60;15.40;;;;;;5074022;28;20419;-75
2022/06/20 10:51:57;;;;;;;8.07;3.20;;;20.90;15.90;;;;;;5054688;28;20419;-73
2022/06/20 10:54:38;;;;;;;7.80;3.20;;;20.90;16.40;;;;;;5053576;28;20724;-73
2022/06/20 10:57:41;;;;;;;8.00;3.20;;;21.00;15.00;;;;;;5053935;28;20839;-73
2022/06/20 11:00:14;;;;;;;9.18;2.97;;;21.10;14.20;;;;;;5063593;28;20513;-74
2022/06/20 11:02:52;;;;;;;10.50;2.90;;;21.30;14.70;;;;;;5073393;28;20388;-74
2022/06/20 11:05:39;;;;;;;5.65;2.97;;;21.50;15.20;;;;;;5055703;28;20388;-73
2022/06/20 11:08:24;;;;;;;8.70;2.90;;;21.60;14.40;;;;;;5072948;28;20486;-73
2022/06/20 11:11:29;;;;;;;6.40;2.75;;;22.00;14.10;;;;;;5054921;28;20383;-72
2022/06/20 11:14:14;;;;;;;5.03;2.70;;;22.30;13.30;;;;;;5073218;28;20384;-73
2022/06/20 11:16:54;;;;;;;8.43;2.85;;;21.90;14.70;;;;;;5072957;28;20391;-73
2022/06/20 11:19:27;;;;;;;4.13;2.25;;;21.40;15.30;;;;;;5073369;28;20406;-72
2022/06/20 11:22:05;;;;;;;5.25;2.45;;;21.20;14.60;;;;;;5055008;28;20472;-74
2022/06/20 11:25:08;;;;;;;6.07;2.90;;;20.80;15.70;;;;;;5073052;28;20436;-71
2022/06/20 11:28:01;;;;;;;11.27;3.70;;;21.00;14.60;;;;;;5072686;28;20848;-75
2022/06/20 11:31:00;;;;;;;8.60;2.47;;;21.20;15.80;;;;;;5057948;28;20483;-74
2022/06/20 11:34:02;;;;;;;6.28;2.60;;;21.40;14.60;;;;;;5073730;28;20380;-73
2022/06/20 11:37:07;;;;;;;6.18;3.20;;;21.60;12.70;;;;;;5072609;28;20428;-74
2022/06/20 11:39:59;;;;;;;6.50;3.63;;;21.90;14.10;;;;;;5068767;22;20445;-71
2022/06/20 11:42:45;;;;;;;6.95;3.92;;;21.70;13.00;;;;;;5034261;28;20418;-71
2022/06/20 11:45:43;;;;;;;9.63;2.80;;;22.10;13.50;;;;;;5033843;28;20380;-72
2022/06/20 11:48:39;;;;;;;9.25;2.30;;;22.60;12.30;;;;;;5013656;28;20377;-73
2022/06/20 11:51:17;;;;;;;7.93;2.33;;;22.70;11.60;;;;;;4994248;28;20390;-72
2022/06/20 11:54:17;;;;;;;8.00;2.50;;;22.60;10.90;;;;;;4994733;28;20390;-72
2022/06/20 11:56:54;;;;;;;8.07;2.50;;;22.40;12.80;;;;;;5028113;28;20391;-71
2022/06/20 11:59:37;;;;;;;9.97;3.00;;;22.60;11.80;;;;;;5046286;28;20492;-73
2022/06/20 12:02:39;;;;;;;8.43;3.05;;;22.90;11.00;;;;;;5031501;28;20478;-73
2022/06/20 12:05:23;;;;;;;9.27;2.70;;;22.70;12.20;;;;;;5024582;28;20392;-72
2022/06/20 12:08:01;;;;;;;3.38;2.28;;;23.10;10.80;;;;;;5038183;28;20399;-72
2022/06/20 12:10:47;;;;;;;10.73;4.22;;;23.60;10.20;;;;;;5041971;28;20562;-72
2022/06/20 12:13:19;;;;;;;9.20;3.30;;;23.90;9.00;;;;;;5045663;28;20391;-72
2022/06/20 12:15:44;;;;;;;6.47;2.55;;;23.70;8.70;;;;;;5052814;28;20391;-72
2022/06/20 12:24:23;;;;;;;6.53;2.80;;;22.50;11.10;;;;;;5027672;28;20412;-72
2022/06/20 12:26:49;;;;;;;6.82;2.40;;;22.30;10.90;;;;;;5019906;28;20400;-71
2022/06/20 12:29:22;;;;;;;9.90;3.10;;;22.70;11.80;;;;;;5014611;28;20488;-72
2022/06/20 12:31:52;;;;;;;7.07;2.60;;;22.90;10.10;;;;;;5014857;28;20377;-72
2022/06/20 12:34:33;;;;;;;3.85;2.88;;;23.10;10.20;;;;;;5015127;28;20789;-73
2022/06/20 12:37:22;;;;;;;5.95;2.42;;;22.90;11.40;;;;;;5023980;28;20387;-71
2022/06/20 12:40:14;;;;;;;5.78;2.78;;;22.20;11.20;;;;;;5033053;28;20502;-72
2022/06/20 12:43:01;;;;;;;5.53;3.13;;;21.80;11.80;;;;;;5033248;28;20478;-71
2022/06/20 12:45:35;;;;;;;4.97;2.90;;;21.70;12.70;;;;;;5033128;28;20391;-72
2022/06/20 12:48:00;;;;;;;6.63;2.72;;;22.10;11.90;;;;;;5031724;28;20470;-72
2022/06/20 12:50:48;;;;;;;7.63;3.00;;;22.00;10.00;;;;;;5032771;28;20979;-73
2022/06/20 12:53:26;;;;;;;6.75;2.38;;;21.40;11.40;;;;;;5033010;28;20387;-72
2022/06/20 12:56:09;;;;;;;3.97;2.55;;;21.30;11.60;;;;;;5032426;28;20379;-72
2022/06/20 12:58:40;;;;;;;5.53;2.65;;;21.50;11.70;;;;;;4994113;28;20432;-73
2022/06/20 13:01:18;;;;;;;5.30;2.70;;;21.50;11.70;;;;;;5008738;28;20890;-70
2022/06/20 13:04:06;;;;;;;4.00;2.47;;;21.70;12.00;;;;;;5007896;28;20414;-71
2022/06/20 13:07:07;;;;;;;6.45;2.50;;;21.80;10.10;;;;;;5022907;28;20483;-73
2022/06/20 13:10:06;;;;;;;6.40;3.03;;;21.90;10.00;;;;;;5039099;28;20403;-76
2022/06/20 13:12:56;;;;;;;7.37;2.60;;;22.20;9.80;;;;;;5012276;28;20423;-74
2022/06/20 13:15:34;;;;;;;7.55;2.75;;;22.20;10.10;;;;;;5020766;28;20415;-76
2022/06/20 13:18:09;;;;;;;8.05;3.13;;;22.10;9.60;;;;;;5021091;28;20410;-74
2022/06/20 13:20:57;;;;;;;5.30;2.70;;;22.40;10.30;;;;;;5025481;28;20467;-73
2022/06/20 13:23:43;;;;;;;6.28;2.80;;;23.10;9.80;;;;;;5023070;28;20406;-73
2022/06/20 13:26:37;;;;;;;6.90;2.97;;;23.00;8.40;;;;;;5016803;28;20472;-75
2022/06/20 13:29:30;;;;;;;8.57;3.33;;;23.30;8.60;;;;;;5018694;28;20413;-75
2022/06/20 13:32:30;;;;;;;13.20;3.10;;;24.80;6.60;;;;;;5022309;28;20402;-75
2022/06/20 13:35:05;;;;;;;7.90;3.38;;;25.40;6.20;;;;;;5018223;28;20396;-75
2022/06/20 13:37:55;;;;;;;5.38;3.53;;;25.90;6.00;;;;;;5017504;28;20896;-74
2022/06/20 13:40:29;;;;;;;7.03;3.42;;;26.00;5.00;;;;;;5020750;28;20419;-73
2022/06/20 13:43:26;;;;;;;5.97;2.85;;;26.40;5.40;;;;;;5020282;28;20410;-76
2022/06/20 13:46:00;;;;;;;7.10;2.83;;;27.00;3.50;;;;;;5019461;28;20397;-76
2022/06/20 13:48:46;;;;;;;7.30;3.30;;;28.00;3.30;;;;;;5016240;28;20394;-77
2022/06/20 13:51:19;;;;;;;7.65;2.90;;;27.90;1.00;;;;;;5018950;28;20888;-78
2022/06/20 13:54:33;;;;;;;8.13;2.70;;;27.20;2.00;;;;;;5018597;28;20454;-77